M/V Gs980 — WTK9405 — position and weather

sailwx.info

Track history (hours):
 
Tides and Currents Weather Stations Pressure Air Temp Water Temp Dewpoint Dewpoint Depression Visibility Wind Speed Wind Dir Waves Ship Positions

M/V Gs980

Owner: ERGON MARINE AND INDUSTRIAL SUPPLY, VICKSBURG, MS. More information available from US FCC via Universal Licensing System and Coast Guard Vessel Documentation Center.

Last reported at 2016-Apr-29 01:33 UTC. Time now 2016-Apr-29 01:53 UTC.
Position N 32°23' W 090°53'.

Length 16 m.

Type: Towing. MMSI: 367099640.

Date/timePositionNaut miles runAvg speedWind from/ knotsBaromVisibWave heightAir tempDewpointWater temp
2016-Apr-29 01:33N 32°23' W 090°53'3 2.7
2016-Apr-29 00:33N 32°20' W 090°54'1 0.9
2016-Apr-28 23:33N 32°20' W 090°54'0 0.0
2016-Apr-28 20:34N 32°20' W 090°54'1 0.8
2016-Apr-28 19:34N 32°20' W 090°54'0 0.0
2016-Apr-28 18:34N 32°20' W 090°54'3 2.7
2016-Apr-28 17:34N 32°23' W 090°54'0 0.1
2016-Apr-28 16:34N 32°23' W 090°54'0 0.0
2016-Apr-28 15:34N 32°23' W 090°54'1 1.2
2016-Apr-28 14:33N 32°23' W 090°53'3 3.1
2016-Apr-28 13:34N 32°21' W 090°55'2 2.1
2016-Apr-28 12:33N 32°21' W 090°58'3 2.8
2016-Apr-28 11:34N 32°21' W 090°55'1 1.1
2016-Apr-28 10:20N 32°20' W 090°54'2 2.8
2016-Apr-28 09:33N 32°22' W 090°53'0 0.0
2016-Apr-28 08:33N 32°22' W 090°53'0 0.0
2016-Apr-28 07:33N 32°22' W 090°53'1 1.3
2016-Apr-28 06:33N 32°23' W 090°54'1 1.4
2016-Apr-28 05:33N 32°21' W 090°53'4 3.8
2016-Apr-28 04:33N 32°18' W 090°55'4 4.0
2016-Apr-28 03:33N 32°22' W 090°53'2 1.6
2016-Apr-28 02:33N 32°23' W 090°53'1 0.9
2016-Apr-28 01:33N 32°22' W 090°53'1 0.9
2016-Apr-28 00:33N 32°21' W 090°53'3 3.2
2016-Apr-27 23:33N 32°19' W 090°55'5 0.6
2016-Apr-27 15:33N 32°23' W 090°53'0 0.1
2016-Apr-27 13:33N 32°23' W 090°53'1 1.4
2016-Apr-27 12:33N 32°22' W 090°53'2 2.2
2016-Apr-27 11:33N 32°20' W 090°54'0 0.0
2016-Apr-27 10:33N 32°20' W 090°54'0 0.0
2016-Apr-27 09:33N 32°20' W 090°54'0 0.0
2016-Apr-27 08:33N 32°20' W 090°54'2 1.8
2016-Apr-27 07:33N 32°18' W 090°55'0 0.0
2016-Apr-27 06:33N 32°18' W 090°55'5 5.3
2016-Apr-27 05:33N 32°23' W 090°53'0 0.4
2016-Apr-27 04:33N 32°23' W 090°54'1 0.6
2016-Apr-27 03:33N 32°23' W 090°53'1 0.7
2016-Apr-27 02:33N 32°22' W 090°53'0 0.3
2016-Apr-27 01:33N 32°22' W 090°53'2 2.3
2016-Apr-27 00:33N 32°20' W 090°54'1 0.2
2016-Apr-26 21:33N 32°20' W 090°54'0 0.2
2016-Apr-26 20:33N 32°19' W 090°54'3 3.2
2016-Apr-26 19:33N 32°22' W 090°53'1 0.9
2016-Apr-26 18:33N 32°22' W 090°53'3 2.7
2016-Apr-26 17:33N 32°24' W 090°55'2 1.7
2016-Apr-26 16:33N 32°23' W 090°53'0 0.3
2016-Apr-26 15:33N 32°23' W 090°53'1 0.5
2016-Apr-26 14:33N 32°23' W 090°54'1 1.1
2016-Apr-26 13:33N 32°22' W 090°53'1 0.9
2016-Apr-26 12:33N 32°23' W 090°53'4 1.8
2016-Apr-26 10:33N 32°20' W 090°54'3 3.4
2016-Apr-26 09:33N 32°23' W 090°53'1 0.5
2016-Apr-26 08:33N 32°22' W 090°53'1 0.9
2016-Apr-26 07:33N 32°23' W 090°53'0 0.0
2016-Apr-26 06:33N 32°23' W 090°53'0 0.0
2016-Apr-26 05:33N 32°23' W 090°53'0 0.0
2016-Apr-26 04:33N 32°23' W 090°53'0 0.0
2016-Apr-26 03:33N 32°23' W 090°53'2 1.6
2016-Apr-26 02:33N 32°22' W 090°53'2 2.3
2016-Apr-26 01:33N 32°23' W 090°55'2 2.0
2016-Apr-26 00:33N 32°23' W 090°52'3 3.1
2016-Apr-25 23:33N 32°20' W 090°54'0 0.0
2016-Apr-25 22:33N 32°20' W 090°54'4 3.6
2016-Apr-25 21:33N 32°23' W 090°53'0 0.2
2016-Apr-25 20:33N 32°23' W 090°53'0 0.0
2016-Apr-25 19:33N 32°23' W 090°53'0 0.0
2016-Apr-25 18:33N 32°23' W 090°53'0 0.1
2016-Apr-25 17:33N 32°23' W 090°53'0 0.1
2016-Apr-25 16:33N 32°23' W 090°53'0 0.0
2016-Apr-25 15:33N 32°23' W 090°53'0 0.0
2016-Apr-25 14:33N 32°23' W 090°53'0 0.0
2016-Apr-25 13:33N 32°23' W 090°53'2 1.6
2016-Apr-25 12:33N 32°22' W 090°53'2 0.9
2016-Apr-25 10:14N 32°20' W 090°54'2 2.7
2016-Apr-25 09:34N 32°21' W 090°53'4 3.6
2016-Apr-25 08:34N 32°18' W 090°55'0 0.1
2016-Apr-25 07:34N 32°18' W 090°55'5 5.2
2016-Apr-25 06:34N 32°23' W 090°53'0 0.0
2016-Apr-25 05:34N 32°23' W 090°53'0 0.0
2016-Apr-25 04:34N 32°23' W 090°53'0 0.0
2016-Apr-25 03:34N 32°23' W 090°53'0 0.0
2016-Apr-25 02:34N 32°23' W 090°53'0 0.0
2016-Apr-25 01:34N 32°23' W 090°53'0 0.4
2016-Apr-25 00:33N 32°23' W 090°53'4 1.5
2016-Apr-24 22:09N 32°20' W 090°54'2 3.5
2016-Apr-24 21:33N 32°22' W 090°53'2 1.7
2016-Apr-24 20:33N 32°23' W 090°53'0 0.0
2016-Apr-24 19:33N 32°23' W 090°53'0 0.0
2016-Apr-24 18:33N 32°23' W 090°53'2 1.7
2016-Apr-24 17:33N 32°22' W 090°53'1 0.8
2016-Apr-24 16:33N 32°22' W 090°53'1 0.8
2016-Apr-24 15:33N 32°23' W 090°53'2 1.6
2016-Apr-24 14:33N 32°21' W 090°53'0 0.1
2016-Apr-24 13:33N 32°22' W 090°53'1 1.4
2016-Apr-24 12:33N 32°23' W 090°53'2 2.0
2016-Apr-24 11:33N 32°21' W 090°53'2 1.2
2016-Apr-24 10:21N 32°20' W 090°54'4 4.6
2016-Apr-24 09:33N 32°23' W 090°53'0 0.0
2016-Apr-24 08:33N 32°23' W 090°53'0 0.1
2016-Apr-24 07:33N 32°23' W 090°53'0 0.0
2016-Apr-24 06:33N 32°23' W 090°53'0 0.0
2016-Apr-24 05:33N 32°23' W 090°53'0 0.0
2016-Apr-24 04:33N 32°23' W 090°53'0 0.0
2016-Apr-24 03:33N 32°23' W 090°53'0 0.0
2016-Apr-24 02:33N 32°23' W 090°53'0 0.0
2016-Apr-24 01:33N 32°23' W 090°53'1 0.7
2016-Apr-24 00:33N 32°23' W 090°53'2 1.6
2016-Apr-23 23:33N 32°21' W 090°53'2 0.8
2016-Apr-23 21:33N 32°23' W 090°53'3 3.4
2016-Apr-23 20:33N 32°20' W 090°54'0 0.0
2016-Apr-23 19:33N 32°20' W 090°54'2 1.7
2016-Apr-23 18:33N 32°18' W 090°55'0 0.1
2016-Apr-23 17:33N 32°18' W 090°55'0 0.0
2016-Apr-23 16:33N 32°18' W 090°55'3 2.8
2016-Apr-23 15:33N 32°21' W 090°53'2 1.8
2016-Apr-23 14:33N 32°22' W 090°53'0 0.3
2016-Apr-23 13:33N 32°22' W 090°53'1 0.6
2016-Apr-23 12:33N 32°23' W 090°53'3 1.5
2016-Apr-23 10:11N 32°20' W 090°54'0 0.0
2016-Apr-23 09:33N 32°20' W 090°54'0 0.0
2016-Apr-23 08:33N 32°20' W 090°54'0 0.0
2016-Apr-23 07:34N 32°20' W 090°54'2 2.2
2016-Apr-23 06:33N 32°18' W 090°56'0 0.1
2016-Apr-23 05:33N 32°18' W 090°56'0 0.1
2016-Apr-23 04:33N 32°18' W 090°56'1 0.8
2016-Apr-23 03:33N 32°18' W 090°55'5 5.1
2016-Apr-23 02:33N 32°23' W 090°53'1 1.4
2016-Apr-23 01:33N 32°23' W 090°55'2 1.8
2016-Apr-23 00:33N 32°22' W 090°53'3 2.9
2016-Apr-22 23:33N 32°20' W 090°54'0 0.0
2016-Apr-22 22:30N 32°20' W 090°54'4 3.8
2016-Apr-22 21:33N 32°23' W 090°53'0 0.0
2016-Apr-22 20:33N 32°23' W 090°53'1 0.6
2016-Apr-22 19:34N 32°23' W 090°54'0 0.2
2016-Apr-22 18:34N 32°23' W 090°54'0 0.5
2016-Apr-22 17:33N 32°23' W 090°53'0 0.0
2016-Apr-22 16:34N 32°23' W 090°53'0 0.0
2016-Apr-22 15:34N 32°23' W 090°53'0 0.0
2016-Apr-22 14:34N 32°23' W 090°53'0 0.1
2016-Apr-22 13:33N 32°23' W 090°53'1 0.7
2016-Apr-22 12:33N 32°23' W 090°53'1 0.2
2016-Apr-22 09:33N 32°22' W 090°53'1 1.1
2016-Apr-22 08:34N 32°23' W 090°53'0 0.0
2016-Apr-22 07:34N 32°23' W 090°53'0 0.0
2016-Apr-22 06:34N 32°23' W 090°53'0 0.0
2016-Apr-22 05:34N 32°23' W 090°53'0 0.0
2016-Apr-22 04:33N 32°23' W 090°53'0 0.0
2016-Apr-22 03:33N 32°23' W 090°53'0 0.2
2016-Apr-22 02:33N 32°23' W 090°53'0 0.0
2016-Apr-22 01:33N 32°23' W 090°53'1 0.7
2016-Apr-22 00:33N 32°23' W 090°54'2 2.0
2016-Apr-21 23:34N 32°21' W 090°53'0 0.2
2016-Apr-21 21:34N 32°21' W 090°53'1 1.4
2016-Apr-21 20:33N 32°22' W 090°53'5 4.6
2016-Apr-21 19:33N 32°18' W 090°55'2 2.4
2016-Apr-21 18:34N 32°20' W 090°54'3 3.0
2016-Apr-21 17:33N 32°23' W 090°53'0 0.0
2016-Apr-21 16:34N 32°23' W 090°53'0 0.0
2016-Apr-21 15:34N 32°23' W 090°53'0 0.0
2016-Apr-21 14:34N 32°23' W 090°53'0 0.0
2016-Apr-21 13:33N 32°23' W 090°53'0 0.3
2016-Apr-21 12:34N 32°23' W 090°54'2 2.5
2016-Apr-21 11:34N 32°21' W 090°53'1 1.0
2016-Apr-21 10:22N 32°20' W 090°54'2 2.6
2016-Apr-21 09:33N 32°22' W 090°53'0 0.0
2016-Apr-21 08:33N 32°22' W 090°53'0 0.0
2016-Apr-21 07:33N 32°22' W 090°53'4 3.8
2016-Apr-21 06:33N 32°21' W 090°57'0 0.3
2016-Apr-21 05:34N 32°21' W 090°58'1 1.4
2016-Apr-21 04:34N 32°21' W 090°56'3 3.4
2016-Apr-21 03:33N 32°23' W 090°53'1 0.9
2016-Apr-21 02:33N 32°23' W 090°53'2 1.7
2016-Apr-21 01:34N 32°22' W 090°53'1 1.1
2016-Apr-21 00:33N 32°23' W 090°52'2 1.9
2016-Apr-20 23:33N 32°21' W 090°53'1 0.7
2016-Apr-20 21:33N 32°20' W 090°54'1 0.2
2016-Apr-20 17:33N 32°19' W 090°54'3 3.0
2016-Apr-20 16:33N 32°17' W 090°57'0 0.0
2016-Apr-20 15:33N 32°17' W 090°57'0 0.1
2016-Apr-20 14:33N 32°17' W 090°57'1 1.5
2016-Apr-20 13:33N 32°18' W 090°56'6 5.6
2016-Apr-20 12:33N 32°23' W 090°53'0 0.1
2016-Apr-20 09:33N 32°23' W 090°53'1 0.6
2016-Apr-20 08:34N 32°23' W 090°53'0 0.0
2016-Apr-20 07:33N 32°23' W 090°53'0 0.0
2016-Apr-20 06:33N 32°23' W 090°53'0 0.0
2016-Apr-20 05:34N 32°23' W 090°53'0 0.0
2016-Apr-20 04:33N 32°23' W 090°53'0 0.0
2016-Apr-20 03:33N 32°23' W 090°53'0 0.3
2016-Apr-20 02:33N 32°23' W 090°54'1 0.9
2016-Apr-20 01:33N 32°22' W 090°53'0 0.2
2016-Apr-20 00:33N 32°22' W 090°53'5 4.7
2016-Apr-19 23:33N 32°18' W 090°55'2 1.7
2016-Apr-19 22:15N 32°20' W 090°54'3 4.6
2016-Apr-19 21:33N 32°23' W 090°53'0 0.1
2016-Apr-19 20:33N 32°23' W 090°53'3 3.0
2016-Apr-19 19:33N 32°21' W 090°55'1 1.0
2016-Apr-19 18:33N 32°21' W 090°56'0 0.1
2016-Apr-19 17:33N 32°21' W 090°56'2 1.5
2016-Apr-19 16:33N 32°21' W 090°55'2 2.3
2016-Apr-19 15:33N 32°22' W 090°53'0 0.4
2016-Apr-19 14:33N 32°22' W 090°53'1 0.8
2016-Apr-19 13:33N 32°23' W 090°53'1 0.9
2016-Apr-19 12:33N 32°23' W 090°52'3 1.6
2016-Apr-19 10:28N 32°20' W 090°54'2 2.3
2016-Apr-19 09:33N 32°22' W 090°53'0 0.0
2016-Apr-19 08:33N 32°22' W 090°53'0 0.0
2016-Apr-19 07:33N 32°22' W 090°53'0 0.0
2016-Apr-19 06:33N 32°22' W 090°53'0 0.0
2016-Apr-19 05:33N 32°22' W 090°53'0 0.1
2016-Apr-19 04:33N 32°22' W 090°53'1 1.3
2016-Apr-19 03:33N 32°20' W 090°54'0 0.1
2016-Apr-19 02:33N 32°20' W 090°54'2 2.1
2016-Apr-19 01:33N 32°23' W 090°54'  
Track history (hours):
 
Tides and Currents Weather Stations Pressure Air Temp Water Temp Dewpoint Dewpoint Depression Visibility Wind Speed Wind Dir Waves Ship Positions

M/V Gs980

Owner: ERGON MARINE AND INDUSTRIAL SUPPLY, VICKSBURG, MS. More information available from US FCC via Universal Licensing System and Coast Guard Vessel Documentation Center.

Last reported at 2016-Apr-29 01:33 UTC. Time now 2016-Apr-29 01:53 UTC.
Position N 32°23' W 090°53'.

Length 16 m.

Type: Towing. MMSI: 367099640.

Date/timePositionNaut miles runAvg speedWind from/ knotsBaromVisibWave heightAir tempDewpointWater temp
2016-Apr-29 01:33N 32°23' W 090°53'3 2.7
2016-Apr-29 00:33N 32°20' W 090°54'1 0.9
2016-Apr-28 23:33N 32°20' W 090°54'0 0.0
2016-Apr-28 20:34N 32°20' W 090°54'1 0.8
2016-Apr-28 19:34N 32°20' W 090°54'0 0.0
2016-Apr-28 18:34N 32°20' W 090°54'3 2.7
2016-Apr-28 17:34N 32°23' W 090°54'0 0.1
2016-Apr-28 16:34N 32°23' W 090°54'0 0.0
2016-Apr-28 15:34N 32°23' W 090°54'1 1.2
2016-Apr-28 14:33N 32°23' W 090°53'3 3.1
2016-Apr-28 13:34N 32°21' W 090°55'2 2.1
2016-Apr-28 12:33N 32°21' W 090°58'3 2.8
2016-Apr-28 11:34N 32°21' W 090°55'1 1.1
2016-Apr-28 10:20N 32°20' W 090°54'2 2.8
2016-Apr-28 09:33N 32°22' W 090°53'0 0.0
2016-Apr-28 08:33N 32°22' W 090°53'0 0.0
2016-Apr-28 07:33N 32°22' W 090°53'1 1.3
2016-Apr-28 06:33N 32°23' W 090°54'1 1.4
2016-Apr-28 05:33N 32°21' W 090°53'4 3.8
2016-Apr-28 04:33N 32°18' W 090°55'4 4.0
2016-Apr-28 03:33N 32°22' W 090°53'2 1.6
2016-Apr-28 02:33N 32°23' W 090°53'1 0.9
2016-Apr-28 01:33N 32°22' W 090°53'1 0.9
2016-Apr-28 00:33N 32°21' W 090°53'3 3.2
2016-Apr-27 23:33N 32°19' W 090°55'5 0.6
2016-Apr-27 15:33N 32°23' W 090°53'0 0.1
2016-Apr-27 13:33N 32°23' W 090°53'1 1.4
2016-Apr-27 12:33N 32°22' W 090°53'2 2.2
2016-Apr-27 11:33N 32°20' W 090°54'0 0.0
2016-Apr-27 10:33N 32°20' W 090°54'0 0.0
2016-Apr-27 09:33N 32°20' W 090°54'0 0.0
2016-Apr-27 08:33N 32°20' W 090°54'2 1.8
2016-Apr-27 07:33N 32°18' W 090°55'0 0.0
2016-Apr-27 06:33N 32°18' W 090°55'5 5.3
2016-Apr-27 05:33N 32°23' W 090°53'0 0.4
2016-Apr-27 04:33N 32°23' W 090°54'1 0.6
2016-Apr-27 03:33N 32°23' W 090°53'1 0.7
2016-Apr-27 02:33N 32°22' W 090°53'0 0.3
2016-Apr-27 01:33N 32°22' W 090°53'2 2.3
2016-Apr-27 00:33N 32°20' W 090°54'1 0.2
2016-Apr-26 21:33N 32°20' W 090°54'0 0.2
2016-Apr-26 20:33N 32°19' W 090°54'3 3.2
2016-Apr-26 19:33N 32°22' W 090°53'1 0.9
2016-Apr-26 18:33N 32°22' W 090°53'3 2.7
2016-Apr-26 17:33N 32°24' W 090°55'2 1.7
2016-Apr-26 16:33N 32°23' W 090°53'0 0.3
2016-Apr-26 15:33N 32°23' W 090°53'1 0.5
2016-Apr-26 14:33N 32°23' W 090°54'1 1.1
2016-Apr-26 13:33N 32°22' W 090°53'1 0.9
2016-Apr-26 12:33N 32°23' W 090°53'4 1.8
2016-Apr-26 10:33N 32°20' W 090°54'3 3.4
2016-Apr-26 09:33N 32°23' W 090°53'1 0.5
2016-Apr-26 08:33N 32°22' W 090°53'1 0.9
2016-Apr-26 07:33N 32°23' W 090°53'0 0.0
2016-Apr-26 06:33N 32°23' W 090°53'0 0.0
2016-Apr-26 05:33N 32°23' W 090°53'0 0.0
2016-Apr-26 04:33N 32°23' W 090°53'0 0.0
2016-Apr-26 03:33N 32°23' W 090°53'2 1.6
2016-Apr-26 02:33N 32°22' W 090°53'2 2.3
2016-Apr-26 01:33N 32°23' W 090°55'2 2.0
2016-Apr-26 00:33N 32°23' W 090°52'3 3.1
2016-Apr-25 23:33N 32°20' W 090°54'0 0.0
2016-Apr-25 22:33N 32°20' W 090°54'4 3.6
2016-Apr-25 21:33N 32°23' W 090°53'0 0.2
2016-Apr-25 20:33N 32°23' W 090°53'0 0.0
2016-Apr-25 19:33N 32°23' W 090°53'0 0.0
2016-Apr-25 18:33N 32°23' W 090°53'0 0.1
2016-Apr-25 17:33N 32°23' W 090°53'0 0.1
2016-Apr-25 16:33N 32°23' W 090°53'0 0.0
2016-Apr-25 15:33N 32°23' W 090°53'0 0.0
2016-Apr-25 14:33N 32°23' W 090°53'0 0.0
2016-Apr-25 13:33N 32°23' W 090°53'2 1.6
2016-Apr-25 12:33N 32°22' W 090°53'2 0.9
2016-Apr-25 10:14N 32°20' W 090°54'2 2.7
2016-Apr-25 09:34N 32°21' W 090°53'4 3.6
2016-Apr-25 08:34N 32°18' W 090°55'0 0.1
2016-Apr-25 07:34N 32°18' W 090°55'5 5.2
2016-Apr-25 06:34N 32°23' W 090°53'0 0.0
2016-Apr-25 05:34N 32°23' W 090°53'0 0.0
2016-Apr-25 04:34N 32°23' W 090°53'0 0.0
2016-Apr-25 03:34N 32°23' W 090°53'0 0.0
2016-Apr-25 02:34N 32°23' W 090°53'0 0.0
2016-Apr-25 01:34N 32°23' W 090°53'0 0.4
2016-Apr-25 00:33N 32°23' W 090°53'4 1.5
2016-Apr-24 22:09N 32°20' W 090°54'2 3.5
2016-Apr-24 21:33N 32°22' W 090°53'2 1.7
2016-Apr-24 20:33N 32°23' W 090°53'0 0.0
2016-Apr-24 19:33N 32°23' W 090°53'0 0.0
2016-Apr-24 18:33N 32°23' W 090°53'2 1.7
2016-Apr-24 17:33N 32°22' W 090°53'1 0.8
2016-Apr-24 16:33N 32°22' W 090°53'1 0.8
2016-Apr-24 15:33N 32°23' W 090°53'2 1.6
2016-Apr-24 14:33N 32°21' W 090°53'0 0.1
2016-Apr-24 13:33N 32°22' W 090°53'1 1.4
2016-Apr-24 12:33N 32°23' W 090°53'2 2.0
2016-Apr-24 11:33N 32°21' W 090°53'2 1.2
2016-Apr-24 10:21N 32°20' W 090°54'4 4.6
2016-Apr-24 09:33N 32°23' W 090°53'0 0.0
2016-Apr-24 08:33N 32°23' W 090°53'0 0.1
2016-Apr-24 07:33N 32°23' W 090°53'0 0.0
2016-Apr-24 06:33N 32°23' W 090°53'0 0.0
2016-Apr-24 05:33N 32°23' W 090°53'0 0.0
2016-Apr-24 04:33N 32°23' W 090°53'0 0.0
2016-Apr-24 03:33N 32°23' W 090°53'0 0.0
2016-Apr-24 02:33N 32°23' W 090°53'0 0.0
2016-Apr-24 01:33N 32°23' W 090°53'1 0.7
2016-Apr-24 00:33N 32°23' W 090°53'2 1.6
2016-Apr-23 23:33N 32°21' W 090°53'2 0.8
2016-Apr-23 21:33N 32°23' W 090°53'3 3.4
2016-Apr-23 20:33N 32°20' W 090°54'0 0.0
2016-Apr-23 19:33N 32°20' W 090°54'2 1.7
2016-Apr-23 18:33N 32°18' W 090°55'0 0.1
2016-Apr-23 17:33N 32°18' W 090°55'0 0.0
2016-Apr-23 16:33N 32°18' W 090°55'3 2.8
2016-Apr-23 15:33N 32°21' W 090°53'2 1.8
2016-Apr-23 14:33N 32°22' W 090°53'0 0.3
2016-Apr-23 13:33N 32°22' W 090°53'1 0.6
2016-Apr-23 12:33N 32°23' W 090°53'3 1.5
2016-Apr-23 10:11N 32°20' W 090°54'0 0.0
2016-Apr-23 09:33N 32°20' W 090°54'0 0.0
2016-Apr-23 08:33N 32°20' W 090°54'0 0.0
2016-Apr-23 07:34N 32°20' W 090°54'2 2.2
2016-Apr-23 06:33N 32°18' W 090°56'0 0.1
2016-Apr-23 05:33N 32°18' W 090°56'0 0.1
2016-Apr-23 04:33N 32°18' W 090°56'1 0.8
2016-Apr-23 03:33N 32°18' W 090°55'5 5.1
2016-Apr-23 02:33N 32°23' W 090°53'1 1.4
2016-Apr-23 01:33N 32°23' W 090°55'2 1.8
2016-Apr-23 00:33N 32°22' W 090°53'3 2.9
2016-Apr-22 23:33N 32°20' W 090°54'0 0.0
2016-Apr-22 22:30N 32°20' W 090°54'4 3.8
2016-Apr-22 21:33N 32°23' W 090°53'0 0.0
2016-Apr-22 20:33N 32°23' W 090°53'1 0.6
2016-Apr-22 19:34N 32°23' W 090°54'0 0.2
2016-Apr-22 18:34N 32°23' W 090°54'0 0.5
2016-Apr-22 17:33N 32°23' W 090°53'0 0.0
2016-Apr-22 16:34N 32°23' W 090°53'0 0.0
2016-Apr-22 15:34N 32°23' W 090°53'0 0.0
2016-Apr-22 14:34N 32°23' W 090°53'0 0.1
2016-Apr-22 13:33N 32°23' W 090°53'1 0.7
2016-Apr-22 12:33N 32°23' W 090°53'1 0.2
2016-Apr-22 09:33N 32°22' W 090°53'1 1.1
2016-Apr-22 08:34N 32°23' W 090°53'0 0.0
2016-Apr-22 07:34N 32°23' W 090°53'0 0.0
2016-Apr-22 06:34N 32°23' W 090°53'0 0.0
2016-Apr-22 05:34N 32°23' W 090°53'0 0.0
2016-Apr-22 04:33N 32°23' W 090°53'0 0.0
2016-Apr-22 03:33N 32°23' W 090°53'0 0.2
2016-Apr-22 02:33N 32°23' W 090°53'0 0.0
2016-Apr-22 01:33N 32°23' W 090°53'1 0.7
2016-Apr-22 00:33N 32°23' W 090°54'2 2.0
2016-Apr-21 23:34N 32°21' W 090°53'0 0.2
2016-Apr-21 21:34N 32°21' W 090°53'1 1.4
2016-Apr-21 20:33N 32°22' W 090°53'5 4.6
2016-Apr-21 19:33N 32°18' W 090°55'2 2.4
2016-Apr-21 18:34N 32°20' W 090°54'3 3.0
2016-Apr-21 17:33N 32°23' W 090°53'0 0.0
2016-Apr-21 16:34N 32°23' W 090°53'0 0.0
2016-Apr-21 15:34N 32°23' W 090°53'0 0.0
2016-Apr-21 14:34N 32°23' W 090°53'0 0.0
2016-Apr-21 13:33N 32°23' W 090°53'0 0.3
2016-Apr-21 12:34N 32°23' W 090°54'2 2.5
2016-Apr-21 11:34N 32°21' W 090°53'1 1.0
2016-Apr-21 10:22N 32°20' W 090°54'2 2.6
2016-Apr-21 09:33N 32°22' W 090°53'0 0.0
2016-Apr-21 08:33N 32°22' W 090°53'0 0.0
2016-Apr-21 07:33N 32°22' W 090°53'4 3.8
2016-Apr-21 06:33N 32°21' W 090°57'0 0.3
2016-Apr-21 05:34N 32°21' W 090°58'1 1.4
2016-Apr-21 04:34N 32°21' W 090°56'3 3.4
2016-Apr-21 03:33N 32°23' W 090°53'1 0.9
2016-Apr-21 02:33N 32°23' W 090°53'2 1.7
2016-Apr-21 01:34N 32°22' W 090°53'1 1.1
2016-Apr-21 00:33N 32°23' W 090°52'2 1.9
2016-Apr-20 23:33N 32°21' W 090°53'1 0.7
2016-Apr-20 21:33N 32°20' W 090°54'1 0.2
2016-Apr-20 17:33N 32°19' W 090°54'3 3.0
2016-Apr-20 16:33N 32°17' W 090°57'0 0.0
2016-Apr-20 15:33N 32°17' W 090°57'0 0.1
2016-Apr-20 14:33N 32°17' W 090°57'1 1.5
2016-Apr-20 13:33N 32°18' W 090°56'6 5.6
2016-Apr-20 12:33N 32°23' W 090°53'0 0.1
2016-Apr-20 09:33N 32°23' W 090°53'1 0.6
2016-Apr-20 08:34N 32°23' W 090°53'0 0.0
2016-Apr-20 07:33N 32°23' W 090°53'0 0.0
2016-Apr-20 06:33N 32°23' W 090°53'0 0.0
2016-Apr-20 05:34N 32°23' W 090°53'0 0.0
2016-Apr-20 04:33N 32°23' W 090°53'0 0.0
2016-Apr-20 03:33N 32°23' W 090°53'0 0.3
2016-Apr-20 02:33N 32°23' W 090°54'1 0.9
2016-Apr-20 01:33N 32°22' W 090°53'0 0.2
2016-Apr-20 00:33N 32°22' W 090°53'5 4.7
2016-Apr-19 23:33N 32°18' W 090°55'2 1.7
2016-Apr-19 22:15N 32°20' W 090°54'3 4.6
2016-Apr-19 21:33N 32°23' W 090°53'0 0.1
2016-Apr-19 20:33N 32°23' W 090°53'3 3.0
2016-Apr-19 19:33N 32°21' W 090°55'1 1.0
2016-Apr-19 18:33N 32°21' W 090°56'0 0.1
2016-Apr-19 17:33N 32°21' W 090°56'2 1.5
2016-Apr-19 16:33N 32°21' W 090°55'2 2.3
2016-Apr-19 15:33N 32°22' W 090°53'0 0.4
2016-Apr-19 14:33N 32°22' W 090°53'1 0.8
2016-Apr-19 13:33N 32°23' W 090°53'1 0.9
2016-Apr-19 12:33N 32°23' W 090°52'3 1.6
2016-Apr-19 10:28N 32°20' W 090°54'2 2.3
2016-Apr-19 09:33N 32°22' W 090°53'0 0.0
2016-Apr-19 08:33N 32°22' W 090°53'0 0.0
2016-Apr-19 07:33N 32°22' W 090°53'0 0.0
2016-Apr-19 06:33N 32°22' W 090°53'0 0.0
2016-Apr-19 05:33N 32°22' W 090°53'0 0.1
2016-Apr-19 04:33N 32°22' W 090°53'1 1.3
2016-Apr-19 03:33N 32°20' W 090°54'0 0.1
2016-Apr-19 02:33N 32°20' W 090°54'2 2.1
2016-Apr-19 01:33N 32°23' W 090°54'  

Dump ship's entire track history